Time;durP1;ratioP1;P1;durP2;ratioP2;P2;SDS_P1;SDS_P2;PMS_P1;PMS_P2;Temp;Humidity;BMP_temperature;BMP_pressure;BME280_temperature;BME280_humidity;BME280_pressure;Samples;Min_cycle;Max_cycle;Signal;HPM_P1;HPM_P2
2022/09/04 00:00:56;;;;;;;15.70;4.30;;;;;;;;;;5033125;28;20033;-66
2022/09/04 00:03:30;;;;;;;12.35;3.72;;;;;;;;;;5027952;28;20100;-66
2022/09/04 00:05:58;;;;;;;15.50;3.63;;;;;;;;;;5023953;28;20297;-66
2022/09/04 00:08:24;;;;;;;13.60;3.72;;;;;;;;;;5027067;28;20025;-66
2022/09/04 00:11:02;;;;;;;14.55;3.17;;;;;;;;;;5024093;28;20021;-66
2022/09/04 00:13:31;;;;;;;16.20;3.95;;;;;;;;;;5028662;28;20655;-66
2022/09/04 00:15:57;;;;;;;15.50;3.50;;;;;;;;;;5024167;28;20025;-66
2022/09/04 00:18:33;;;;;;;15.95;3.88;;;;;;;;;;5012235;28;20024;-66
2022/09/04 00:21:10;;;;;;;18.50;3.83;;;;;;;;;;5021565;28;20032;-67
2022/09/04 00:23:36;;;;;;;16.38;3.58;;;;;;;;;;5006544;28;20881;-64
2022/09/04 00:26:13;;;;;;;18.13;3.78;;;;;;;;;;5006854;28;21131;-65
2022/09/04 00:28:49;;;;;;;17.40;3.72;;;;;;;;;;5024050;28;20060;-65
2022/09/04 00:31:35;;;;;;;14.13;3.55;;;;;;;;;;5007475;28;20128;-65
2022/09/04 00:34:14;;;;;;;13.27;3.55;;;;;;;;;;5016842;28;20041;-65
2022/09/04 00:36:42;;;;;;;18.25;4.00;;;;;;;;;;5030534;28;20202;-65
2022/09/04 00:39:11;;;;;;;12.93;3.30;;;;;;;;;;5028375;28;20260;-65
2022/09/04 00:41:56;;;;;;;16.85;3.80;;;;;;;;;;5024799;28;20256;-65
2022/09/04 00:44:31;;;;;;;15.82;3.47;;;;;;;;;;5010712;28;20594;-64
2022/09/04 00:47:17;;;;;;;14.33;3.87;;;;;;;;;;5025167;28;20024;-64
2022/09/04 00:49:43;;;;;;;16.30;3.63;;;;;;;;;;5002729;28;20631;-65
2022/09/04 00:52:18;;;;;;;14.82;3.78;;;;;;;;;;5010571;28;20067;-65
2022/09/04 00:55:03;;;;;;;14.85;3.70;;;;;;;;;;5027690;28;20503;-66
2022/09/04 00:57:33;;;;;;;19.08;3.97;;;;;;;;;;5012212;28;20037;-65
2022/09/04 01:00:17;;;;;;;15.27;3.40;;;;;;;;;;5032889;28;20043;-64
2022/09/04 01:02:43;;;;;;;12.73;3.45;;;;;;;;;;5030651;28;20037;-65
2022/09/04 01:05:19;;;;;;;16.77;3.65;;;;;;;;;;5012062;28;20432;-65
2022/09/04 01:07:55;;;;;;;11.63;3.45;;;;;;;;;;5025636;28;20140;-66
2022/09/04 01:10:21;;;;;;;;;;;;;;;;;;5036064;28;20450;-65
2022/09/04 01:12:51;;;;;;;17.90;4.15;;;;;;;;;;5009983;28;20445;-65
2022/09/04 01:15:49;;;;;;;14.07;4.00;;;;;;;;;;5034510;28;20040;-65
2022/09/04 01:18:16;;;;;;;11.10;3.17;;;;;;;;;;4962605;28;20046;-65
2022/09/04 01:20:57;;;;;;;15.15;3.67;;;;;;;;;;4963086;28;20038;-65
2022/09/04 01:23:49;;;;;;;14.07;3.85;;;;;;;;;;4963695;28;20018;-65
2022/09/04 01:26:15;;;;;;;14.48;3.95;;;;;;;;;;4961292;28;20476;-67
2022/09/04 01:28:41;;;;;;;13.95;3.55;;;;;;;;;;4958702;28;20039;-66
2022/09/04 01:31:10;;;;;;;12.60;3.47;;;;;;;;;;4960776;28;20019;-66
2022/09/04 01:33:58;;;;;;;15.00;3.55;;;;;;;;;;4964729;28;20065;-66
2022/09/04 01:36:35;;;;;;;12.98;3.05;;;;;;;;;;4971270;28;20639;-66
2022/09/04 01:39:02;;;;;;;15.07;3.55;;;;;;;;;;4966531;28;21628;-65
2022/09/04 01:41:31;;;;;;;11.80;3.20;;;;;;;;;;4967407;28;20058;-65
2022/09/04 01:43:57;;;;;;;15.70;3.38;;;;;;;;;;4945743;28;20460;-65
2022/09/04 01:46:30;;;;;;;11.57;2.97;;;;;;;;;;4960946;28;20070;-65
2022/09/04 01:48:59;;;;;;;16.25;3.38;;;;;;;;;;4957479;28;20062;-65
2022/09/04 01:51:34;;;;;;;12.13;3.05;;;;;;;;;;4959514;28;20042;-65
2022/09/04 01:54:10;;;;;;;12.57;3.00;;;;;;;;;;4992865;28;20455;-65
2022/09/04 01:56:38;;;;;;;17.10;3.30;;;;;;;;;;5027170;28;20138;-65
2022/09/04 01:59:14;;;;;;;13.82;2.97;;;;;;;;;;5007096;28;20502;-65
2022/09/04 02:01:54;;;;;;;14.35;3.05;;;;;;;;;;5027777;28;20147;-65
2022/09/04 02:04:20;;;;;;;14.38;3.20;;;;;;;;;;5026191;28;20476;-66
2022/09/04 02:06:50;;;;;;;12.40;2.90;;;;;;;;;;5024460;28;20044;-65
2022/09/04 02:09:34;;;;;;;14.38;3.15;;;;;;;;;;5023763;28;20048;-65
2022/09/04 02:12:09;;;;;;;15.85;3.40;;;;;;;;;;5009126;28;20939;-65
2022/09/04 02:14:53;;;;;;;13.30;2.73;;;;;;;;;;5027253;28;20511;-65
2022/09/04 02:17:22;;;;;;;10.88;3.20;;;;;;;;;;5026782;28;20531;-66
2022/09/04 02:20:07;;;;;;;15.60;3.40;;;;;;;;;;5007687;28;20098;-64
2022/09/04 02:22:43;;;;;;;11.52;3.38;;;;;;;;;;5026318;28;20664;-65
2022/09/04 02:25:42;;;;;;;15.77;3.75;;;;;;;;;;5025427;28;20577;-65
2022/09/04 02:28:08;;;;;;;15.75;3.65;;;;;;;;;;4928936;28;20254;-65
2022/09/04 02:30:45;;;;;;;15.75;3.85;;;;;;;;;;4928792;28;20043;-65
2022/09/04 02:33:27;;;;;;;14.10;3.85;;;;;;;;;;4928874;28;20055;-65
2022/09/04 02:35:56;;;;;;;17.05;4.43;;;;;;;;;;4925910;28;20035;-65
2022/09/04 02:38:45;;;;;;;14.25;3.97;;;;;;;;;;4927717;28;20047;-65
2022/09/04 02:41:20;;;;;;;15.05;3.83;;;;;;;;;;4928135;28;20387;-64
2022/09/04 02:44:01;;;;;;;17.08;4.03;;;;;;;;;;4925416;28;20117;-67
2022/09/04 02:46:36;;;;;;;15.93;3.88;;;;;;;;;;4928318;28;20525;-64
2022/09/04 02:49:12;;;;;;;12.15;3.17;;;;;;;;;;4925072;28;20338;-65
2022/09/04 02:51:41;;;;;;;14.30;3.97;;;;;;;;;;4927210;28;20516;-64
2022/09/04 02:54:25;;;;;;;17.70;3.70;;;;;;;;;;4928562;28;20150;-64
2022/09/04 02:57:14;;;;;;;12.57;3.40;;;;;;;;;;4909895;28;20062;-67
2022/09/04 02:59:46;;;;;;;14.00;3.50;;;;;;;;;;4892993;29;20094;-65
2022/09/04 03:02:23;;;;;;;12.48;3.17;;;;;;;;;;4893136;29;20123;-65
2022/09/04 03:04:56;;;;;;;14.68;3.15;;;;;;;;;;4941552;28;20462;-65
2022/09/04 03:07:28;;;;;;;15.75;3.70;;;;;;;;;;4950338;28;20117;-65
2022/09/04 03:09:58;;;;;;;15.00;2.95;;;;;;;;;;4930445;28;20064;-64
2022/09/04 03:12:31;;;;;;;17.05;4.05;;;;;;;;;;4948774;28;20271;-64
2022/09/04 03:15:02;;;;;;;19.75;5.78;;;;;;;;;;4947495;28;20089;-66
2022/09/04 03:17:39;;;;;;;13.88;3.75;;;;;;;;;;4948306;28;20089;-66
2022/09/04 03:20:19;;;;;;;16.17;4.07;;;;;;;;;;4946026;28;20081;-67
2022/09/04 03:22:57;;;;;;;13.32;3.22;;;;;;;;;;4947394;28;20022;-66
2022/09/04 03:25:23;;;;;;;14.27;3.67;;;;;;;;;;4949036;28;20481;-67
2022/09/04 03:27:49;;;;;;;15.02;3.92;;;;;;;;;;4945085;28;20034;-65
2022/09/04 03:30:16;;;;;;;12.20;3.83;;;;;;;;;;4948292;28;20049;-65
2022/09/04 03:32:51;;;;;;;14.98;3.83;;;;;;;;;;4932559;28;20031;-65
2022/09/04 03:35:33;;;;;;;16.98;4.22;;;;;;;;;;4947574;28;20697;-65
2022/09/04 03:37:59;;;;;;;15.57;4.10;;;;;;;;;;5020663;28;20040;-65
2022/09/04 03:40:35;;;;;;;18.02;4.00;;;;;;;;;;5024947;28;20037;-65
2022/09/04 03:43:18;;;;;;;16.80;3.80;;;;;;;;;;5020765;28;20029;-65
2022/09/04 03:46:03;;;;;;;18.70;4.50;;;;;;;;;;5005830;28;20727;-64
2022/09/04 03:48:34;;;;;;;20.65;4.82;;;;;;;;;;5007683;28;20037;-66
2022/09/04 03:51:09;;;;;;;17.88;4.45;;;;;;;;;;5002238;28;20136;-65
2022/09/04 03:53:45;;;;;;;17.48;4.80;;;;;;;;;;5026275;28;20190;-65
2022/09/04 03:56:20;;;;;;;18.38;4.43;;;;;;;;;;5009185;28;20028;-65
2022/09/04 03:58:58;;;;;;;16.27;3.90;;;;;;;;;;5025579;28;20032;-65
2022/09/04 04:01:43;;;;;;;18.02;4.53;;;;;;;;;;5025606;28;20021;-65
2022/09/04 04:04:33;;;;;;;18.85;4.40;;;;;;;;;;5010375;28;20095;-65
2022/09/04 04:07:08;;;;;;;20.17;4.32;;;;;;;;;;5018751;28;20483;-65
2022/09/04 04:09:41;;;;;;;15.02;3.92;;;;;;;;;;5007346;28;20665;-65
2022/09/04 04:12:14;;;;;;;18.35;3.95;;;;;;;;;;5026542;28;20695;-65
2022/09/04 04:14:44;;;;;;;18.17;4.07;;;;;;;;;;5011787;28;20384;-66
2022/09/04 04:17:14;;;;;;;16.55;4.57;;;;;;;;;;5023745;28;20021;-65
2022/09/04 04:19:46;;;;;;;14.43;4.53;;;;;;;;;;5008585;28;20039;-66
2022/09/04 04:22:31;;;;;;;15.63;4.32;;;;;;;;;;5027591;28;20059;-65
2022/09/04 04:24:57;;;;;;;13.65;3.88;;;;;;;;;;5024647;28;20509;-65
2022/09/04 04:27:24;;;;;;;16.10;3.70;;;;;;;;;;5031600;28;20347;-65
2022/09/04 04:30:05;;;;;;;16.08;4.00;;;;;;;;;;5026836;28;20032;-65
2022/09/04 04:32:32;;;;;;;14.73;3.67;;;;;;;;;;5029571;28;20032;-65
2022/09/04 04:35:07;;;;;;;14.35;3.90;;;;;;;;;;5026340;28;21088;-65
2022/09/04 04:37:49;;;;;;;15.45;4.22;;;;;;;;;;5012640;28;20498;-65
2022/09/04 04:40:34;;;;;;;16.15;3.65;;;;;;;;;;5030855;28;20025;-65
2022/09/04 04:43:05;;;;;;;18.95;3.97;;;;;;;;;;5026301;28;20033;-65
2022/09/04 04:45:49;;;;;;;14.07;3.63;;;;;;;;;;5029218;28;20028;-66
2022/09/04 04:48:35;;;;;;;15.75;3.45;;;;;;;;;;5022977;28;20035;-65
2022/09/04 04:51:11;;;;;;;13.55;3.60;;;;;;;;;;5020436;28;22012;-65
2022/09/04 04:53:58;;;;;;;18.45;3.90;;;;;;;;;;5027045;28;20056;-65
2022/09/04 04:56:44;;;;;;;17.42;3.90;;;;;;;;;;5025201;28;20446;-65
2022/09/04 04:59:19;;;;;;;13.70;3.60;;;;;;;;;;5029583;28;20025;-64
2022/09/04 05:02:06;;;;;;;13.40;3.60;;;;;;;;;;5023182;28;20025;-64
2022/09/04 05:04:44;;;;;;;16.00;3.58;;;;;;;;;;5030216;28;20033;-66
2022/09/04 05:07:11;;;;;;;15.30;3.92;;;;;;;;;;5029522;28;20106;-67
2022/09/04 05:09:46;;;;;;;16.13;4.03;;;;;;;;;;5032036;28;20025;-67
2022/09/04 05:12:20;;;;;;;11.80;3.33;;;;;;;;;;5031284;28;20577;-67
2022/09/04 05:14:54;;;;;;;15.32;3.85;;;;;;;;;;5024194;28;20127;-66
2022/09/04 05:17:33;;;;;;;16.30;3.15;;;;;;;;;;5030484;28;20056;-65
2022/09/04 05:20:24;;;;;;;18.02;3.60;;;;;;;;;;5008535;28;20025;-65
2022/09/04 05:23:05;;;;;;;12.57;3.17;;;;;;;;;;5028205;28;20025;-65
2022/09/04 05:25:50;;;;;;;16.10;3.63;;;;;;;;;;5025998;28;20700;-65
2022/09/04 05:28:22;;;;;;;14.68;3.30;;;;;;;;;;5027270;28;20033;-66
2022/09/04 05:30:49;;;;;;;17.55;3.40;;;;;;;;;;5024929;28;20107;-66
2022/09/04 05:33:33;;;;;;;21.77;4.13;;;;;;;;;;5011495;28;20647;-65
2022/09/04 05:36:00;;;;;;;14.82;3.55;;;;;;;;;;5024400;28;20029;-65
2022/09/04 05:38:26;;;;;;;17.17;3.78;;;;;;;;;;5028464;28;20024;-66
2022/09/04 05:41:11;;;;;;;18.42;3.00;;;;;;;;;;5026597;28;20028;-65
2022/09/04 05:43:56;;;;;;;20.27;3.88;;;;;;;;;;5027137;28;20033;-66
2022/09/04 05:46:41;;;;;;;16.55;4.22;;;;;;;;;;5027798;28;20482;-65
2022/09/04 05:49:36;;;;;;;20.30;4.68;;;;;;;;;;5025440;28;20061;-65
2022/09/04 05:52:19;;;;;;;15.57;3.67;;;;;;;;;;4997854;28;20191;-65
2022/09/04 05:55:04;;;;;;;13.55;2.60;;;;;;;;;;5026915;28;20033;-65
2022/09/04 05:57:44;;;;;;;18.23;3.50;;;;;;;;;;5027520;28;20762;-65
2022/09/04 06:00:21;;;;;;;15.88;3.78;;;;;;;;;;5012146;28;20554;-65
2022/09/04 06:02:47;;;;;;;;;;;;;;;;;;5027694;28;20021;-66
2022/09/04 06:05:27;;;;;;;15.98;3.70;;;;;;;;;;5029690;28;19912;-65
2022/09/04 06:07:53;;;;;;;16.27;3.92;;;;;;;;;;5026660;28;20034;-65
2022/09/04 06:10:19;;;;;;;16.27;3.50;;;;;;;;;;5028713;28;20033;-65
2022/09/04 06:13:04;;;;;;;20.08;3.45;;;;;;;;;;5026989;28;20056;-65
2022/09/04 06:15:42;;;;;;;14.48;3.40;;;;;;;;;;5029345;28;20044;-65
2022/09/04 06:18:27;;;;;;;16.85;3.53;;;;;;;;;;5029941;28;20586;-65
2022/09/04 06:21:13;;;;;;;15.48;3.25;;;;;;;;;;5027114;28;20052;-65
2022/09/04 06:23:58;;;;;;;12.57;3.10;;;;;;;;;;4983646;28;20033;-65
2022/09/04 06:26:24;;;;;;;18.95;3.40;;;;;;;;;;5028346;28;20044;-65
2022/09/04 06:28:50;;;;;;;14.52;3.10;;;;;;;;;;5026461;28;20033;-65
2022/09/04 06:31:19;;;;;;;17.02;3.75;;;;;;;;;;5011368;28;21179;-65
2022/09/04 06:33:48;;;;;;;16.38;3.50;;;;;;;;;;5021330;28;20036;-65
2022/09/04 06:36:18;;;;;;;17.42;3.72;;;;;;;;;;5011103;28;20029;-65
2022/09/04 06:38:50;;;;;;;15.75;3.80;;;;;;;;;;5020500;28;20036;-65
2022/09/04 06:41:16;;;;;;;16.13;3.97;;;;;;;;;;5026278;28;20029;-65
2022/09/04 06:43:54;;;;;;;15.85;3.10;;;;;;;;;;5026904;28;20068;-65
2022/09/04 06:46:28;;;;;;;15.35;3.40;;;;;;;;;;5028450;28;20059;-65
2022/09/04 06:49:02;;;;;;;17.10;3.50;;;;;;;;;;5025740;28;20033;-65
2022/09/04 06:51:40;;;;;;;17.20;3.85;;;;;;;;;;5025716;28;20097;-65
2022/09/04 06:54:13;;;;;;;12.65;3.42;;;;;;;;;;5004678;28;20125;-65
2022/09/04 06:56:43;;;;;;;15.68;3.65;;;;;;;;;;5006252;28;20036;-65
2022/09/04 06:59:18;;;;;;;16.23;3.42;;;;;;;;;;5004985;28;20048;-65
2022/09/04 07:02:04;;;;;;;15.17;3.37;;;;;;;;;;5003582;28;20021;-65
2022/09/04 07:04:49;;;;;;;15.87;3.43;;;;;;;;;;5006006;28;20270;-65
2022/09/04 07:07:21;;;;;;;17.35;3.47;;;;;;;;;;5007742;28;20044;-65
2022/09/04 07:09:49;;;;;;;17.35;3.75;;;;;;;;;;5002095;28;20064;-65
2022/09/04 07:12:35;;;;;;;14.65;3.38;;;;;;;;;;5005227;28;20574;-65
2022/09/04 07:15:13;;;;;;;14.82;3.03;;;;;;;;;;5003156;28;20400;-65
2022/09/04 07:17:58;;;;;;;15.32;3.85;;;;;;;;;;5011296;28;20510;-65
2022/09/04 07:20:24;;;;;;;11.70;2.83;;;;;;;;;;5014735;28;20120;-65
2022/09/04 07:22:53;;;;;;;15.20;3.22;;;;;;;;;;5005880;28;20029;-65
2022/09/04 07:25:32;;;;;;;15.48;3.03;;;;;;;;;;5013401;28;20041;-65
2022/09/04 07:28:15;;;;;;;15.43;2.80;;;;;;;;;;5005879;28;20426;-65
2022/09/04 07:31:04;;;;;;;14.23;3.30;;;;;;;;;;5008837;28;20149;-64
2022/09/04 07:33:59;;;;;;;15.93;3.80;;;;;;;;;;5008305;28;20090;-65
2022/09/04 07:36:37;;;;;;;15.93;3.10;;;;;;;;;;4923438;28;20043;-65
2022/09/04 07:39:03;;;;;;;14.95;2.75;;;;;;;;;;4938728;28;20170;-65
2022/09/04 07:41:41;;;;;;;15.82;3.10;;;;;;;;;;4935771;28;20121;-65
2022/09/04 07:44:28;;;;;;;13.65;3.40;;;;;;;;;;4939018;28;20259;-66
2022/09/04 07:46:56;;;;;;;;;;;;;;;;;;4917078;28;20065;-66
2022/09/04 07:49:34;;;;;;;18.40;3.45;;;;;;;;;;4925520;28;20352;-66
2022/09/04 07:52:18;;;;;;;12.13;3.05;;;;;;;;;;4936881;28;20078;-65
2022/09/04 07:54:47;;;;;;;13.15;2.97;;;;;;;;;;4937698;28;20610;-65
2022/09/04 07:57:20;;;;;;;15.95;2.80;;;;;;;;;;4939525;28;20069;-65
2022/09/04 07:59:49;;;;;;;13.40;3.30;;;;;;;;;;4939319;28;20074;-65
2022/09/04 08:02:21;;;;;;;12.95;2.80;;;;;;;;;;4939582;28;20039;-65
2022/09/04 08:04:50;;;;;;;16.85;3.38;;;;;;;;;;4940104;28;20910;-65
2022/09/04 08:07:24;;;;;;;17.75;4.00;;;;;;;;;;4938328;28;20064;-65
2022/09/04 08:09:53;;;;;;;12.98;3.40;;;;;;;;;;4918482;28;20046;-66
2022/09/04 08:12:32;;;;;;;14.18;3.42;;;;;;;;;;4959690;28;20041;-65
2022/09/04 08:15:01;;;;;;;16.30;3.22;;;;;;;;;;5011232;28;20030;-65
2022/09/04 08:17:35;;;;;;;13.18;2.83;;;;;;;;;;5010707;28;20033;-65
2022/09/04 08:20:17;;;;;;;12.00;2.53;;;;;;;;;;5008065;28;22246;-65
2022/09/04 08:22:52;;;;;;;11.57;2.38;;;;;;;;;;5008334;28;20056;-65
2022/09/04 08:25:28;;;;;;;16.52;2.90;;;;;;;;;;5010220;28;20853;-66
2022/09/04 08:27:58;;;;;;;12.88;2.70;;;;;;;;;;5011942;28;20656;-65
2022/09/04 08:30:30;;;;;;;11.13;2.22;;;;;;;;;;5013337;28;20108;-65
2022/09/04 08:33:11;;;;;;;11.02;2.22;;;;;;;;;;5005867;28;20468;-66
2022/09/04 08:35:40;;;;;;;14.52;2.30;;;;;;;;;;5013752;28;20053;-66
2022/09/04 08:38:21;;;;;;;12.05;2.47;;;;;;;;;;5005592;28;20045;-66
2022/09/04 08:40:57;;;;;;;11.20;2.17;;;;;;;;;;5009581;28;20480;-66
2022/09/04 08:43:43;;;;;;;11.73;2.33;;;;;;;;;;5009517;28;20037;-66
2022/09/04 08:46:38;;;;;;;14.57;2.97;;;;;;;;;;5013470;28;20455;-67
2022/09/04 08:49:16;;;;;;;13.57;2.42;;;;;;;;;;4943734;28;20034;-65
2022/09/04 08:52:01;;;;;;;13.15;2.10;;;;;;;;;;4957984;28;20050;-66
2022/09/04 08:54:50;;;;;;;17.25;2.97;;;;;;;;;;4964257;28;20077;-66
2022/09/04 08:57:43;;;;;;;14.52;3.00;;;;;;;;;;4962401;28;20030;-66
2022/09/04 09:00:14;;;;;;;17.63;3.47;;;;;;;;;;4958507;28;20047;-66
2022/09/04 09:02:40;;;;;;;17.13;3.53;;;;;;;;;;4964143;28;20052;-66
2022/09/04 09:05:07;;;;;;;14.02;2.90;;;;;;;;;;4948690;28;20041;-67
2022/09/04 09:07:36;;;;;;;16.70;2.95;;;;;;;;;;4960382;28;20069;-67
2022/09/04 09:10:21;;;;;;;15.60;3.03;;;;;;;;;;4961323;28;20042;-66
2022/09/04 09:13:06;;;;;;;23.52;3.92;;;;;;;;;;4959209;28;20548;-66
2022/09/04 09:15:34;;;;;;;16.67;3.25;;;;;;;;;;4965171;28;20339;-66
2022/09/04 09:18:16;;;;;;;19.50;3.33;;;;;;;;;;4945911;28;20049;-66
2022/09/04 09:20:53;;;;;;;22.65;3.83;;;;;;;;;;4951981;28;20522;-66
2022/09/04 09:23:31;;;;;;;18.98;3.00;;;;;;;;;;4962520;28;20032;-66
2022/09/04 09:26:05;;;;;;;18.58;2.97;;;;;;;;;;4991150;28;20081;-66
2022/09/04 09:28:50;;;;;;;16.77;2.90;;;;;;;;;;5014027;28;20044;-67
2022/09/04 09:31:25;;;;;;;18.42;3.50;;;;;;;;;;5011670;28;20096;-66
2022/09/04 09:33:51;;;;;;;;;;;;;;;;;;5005202;28;20486;-66
2022/09/04 09:36:36;;;;;;;15.50;3.15;;;;;;;;;;5011365;28;19944;-66
2022/09/04 09:39:05;;;;;;;16.52;3.05;;;;;;;;;;5006290;28;20255;-66
2022/09/04 09:41:36;;;;;;;17.73;3.40;;;;;;;;;;5013105;28;20033;-66
2022/09/04 09:44:34;;;;;;;17.63;3.30;;;;;;;;;;5002061;28;21664;-66
2022/09/04 09:47:06;;;;;;;17.05;3.38;;;;;;;;;;5007026;28;20030;-66
2022/09/04 09:49:50;;;;;;;19.42;3.15;;;;;;;;;;5012772;28;20120;-66
2022/09/04 09:52:19;;;;;;;17.85;3.47;;;;;;;;;;5016348;28;20055;-67
2022/09/04 09:54:45;;;;;;;16.83;3.40;;;;;;;;;;5023434;28;20049;-67
2022/09/04 09:57:17;;;;;;;18.70;3.50;;;;;;;;;;5027835;28;20029;-66
2022/09/04 09:59:43;;;;;;;19.05;3.35;;;;;;;;;;5010109;28;20468;-66
2022/09/04 10:02:12;;;;;;;19.10;4.15;;;;;;;;;;5033330;28;20058;-66
2022/09/04 10:04:55;;;;;;;20.63;3.78;;;;;;;;;;5033890;28;20028;-66
2022/09/04 10:07:36;;;;;;;23.58;4.07;;;;;;;;;;5029256;28;20025;-67
2022/09/04 10:10:39;;;;;;;26.02;4.22;;;;;;;;;;5028594;28;20547;-66
2022/09/04 10:13:28;;;;;;;17.80;3.90;;;;;;;;;;4932482;28;20035;-66
2022/09/04 10:15:54;;;;;;;20.17;3.50;;;;;;;;;;4907243;29;20044;-66
2022/09/04 10:18:38;;;;;;;17.25;3.45;;;;;;;;;;4897897;29;20167;-66
2022/09/04 10:21:40;;;;;;;19.33;3.78;;;;;;;;;;4915262;29;20671;-66
2022/09/04 10:24:09;;;;;;;19.20;3.55;;;;;;;;;;4878009;29;20554;-66
2022/09/04 10:26:54;;;;;;;20.58;3.97;;;;;;;;;;4886140;29;20056;-66
2022/09/04 10:29:25;;;;;;;18.43;3.87;;;;;;;;;;4870142;29;20523;-66
2022/09/04 10:32:08;;;;;;;18.73;3.47;;;;;;;;;;4868252;29;20275;-66
2022/09/04 10:34:47;;;;;;;18.00;3.85;;;;;;;;;;4886583;29;20040;-67
2022/09/04 10:37:19;;;;;;;18.75;3.40;;;;;;;;;;4882358;29;20144;-66
2022/09/04 10:42:45;;;;;;;18.23;3.92;;;;;;;;;;4883581;29;20050;-68
2022/09/04 10:45:11;;;;;;;23.30;4.30;;;;;;;;;;4880124;29;20224;-66
2022/09/04 10:47:47;;;;;;;20.38;3.70;;;;;;;;;;4891804;29;20482;-66
2022/09/04 10:50:21;;;;;;;20.95;3.75;;;;;;;;;;4890380;29;20112;-66
2022/09/04 10:52:59;;;;;;;17.52;3.55;;;;;;;;;;4908033;28;20042;-66
2022/09/04 10:55:44;;;;;;;19.42;3.55;;;;;;;;;;4940951;28;20038;-66
2022/09/04 10:58:17;;;;;;;15.82;3.38;;;;;;;;;;4978220;28;20052;-66
2022/09/04 11:00:52;;;;;;;18.67;3.92;;;;;;;;;;5013043;28;20442;-66
2022/09/04 11:03:43;;;;;;;20.13;4.22;;;;;;;;;;5012151;28;20036;-68
2022/09/04 11:06:27;;;;;;;22.75;4.05;;;;;;;;;;5008296;28;20491;-66
2022/09/04 11:09:00;;;;;;;20.38;3.72;;;;;;;;;;5005446;28;20351;-66
2022/09/04 11:11:32;;;;;;;19.35;4.32;;;;;;;;;;5010927;28;20030;-66
2022/09/04 11:14:07;;;;;;;17.05;2.95;;;;;;;;;;5005026;28;20041;-67
2022/09/04 11:16:33;;;;;;;;;;;;;;;;;;5011840;28;20037;-66
2022/09/04 11:19:09;;;;;;;17.85;3.72;;;;;;;;;;5004884;28;19913;-66
2022/09/04 11:21:54;;;;;;;19.50;4.00;;;;;;;;;;5010463;28;20021;-66
2022/09/04 11:24:58;;;;;;;17.23;3.85;;;;;;;;;;5009786;28;20029;-66
2022/09/04 11:27:27;;;;;;;23.48;4.20;;;;;;;;;;4961230;28;20045;-66
2022/09/04 11:30:16;;;;;;;21.40;4.18;;;;;;;;;;4957991;28;20412;-67
2022/09/04 11:32:52;;;;;;;16.48;3.80;;;;;;;;;;4958845;28;20031;-67
2022/09/04 11:35:36;;;;;;;21.20;4.22;;;;;;;;;;4962498;28;20509;-67
2022/09/04 11:38:02;;;;;;;18.42;4.07;;;;;;;;;;4957278;28;20139;-68
2022/09/04 11:40:40;;;;;;;21.90;4.10;;;;;;;;;;4946074;28;20043;-65
2022/09/04 11:43:07;;;;;;;23.27;4.15;;;;;;;;;;4958429;28;20101;-65
2022/09/04 11:45:47;;;;;;;30.10;5.22;;;;;;;;;;4948169;28;20022;-65
2022/09/04 11:48:25;;;;;;;21.70;4.05;;;;;;;;;;4956435;28;20069;-66
2022/09/04 11:51:15;;;;;;;21.00;4.50;;;;;;;;;;4942650;28;20025;-65
2022/09/04 11:53:53;;;;;;;24.10;4.38;;;;;;;;;;4943791;28;20505;-66
2022/09/04 11:56:24;;;;;;;22.00;3.92;;;;;;;;;;4961465;28;20137;-66
2022/09/04 11:59:03;;;;;;;18.20;4.10;;;;;;;;;;4944717;28;20026;-66
2022/09/04 12:01:51;;;;;;;20.98;4.25;;;;;;;;;;4986149;28;20105;-65
2022/09/04 12:04:36;;;;;;;21.98;4.65;;;;;;;;;;5004221;28;20048;-66
2022/09/04 12:07:04;;;;;;;20.45;4.45;;;;;;;;;;5001914;28;22389;-65
2022/09/04 12:09:33;;;;;;;19.38;4.35;;;;;;;;;;5008387;28;20025;-66
2022/09/04 12:12:21;;;;;;;23.45;4.82;;;;;;;;;;5003562;28;20026;-66
2022/09/04 12:14:59;;;;;;;24.00;4.20;;;;;;;;;;5005302;28;20033;-66
2022/09/04 12:17:46;;;;;;;20.88;4.18;;;;;;;;;;5007728;28;20468;-67
2022/09/04 12:20:31;;;;;;;21.60;4.25;;;;;;;;;;5006444;28;20128;-66
2022/09/04 12:22:57;;;;;;;20.83;4.28;;;;;;;;;;5003118;28;20091;-67
2022/09/04 12:25:23;;;;;;;22.02;4.55;;;;;;;;;;5011193;28;20498;-66
2022/09/04 12:28:07;;;;;;;22.10;4.57;;;;;;;;;;5008551;28;20088;-66
2022/09/04 12:30:54;;;;;;;21.35;4.45;;;;;;;;;;5009380;28;20029;-68
2022/09/04 12:33:20;;;;;;;22.10;4.65;;;;;;;;;;5007806;28;20521;-70
2022/09/04 12:35:47;;;;;;;24.40;4.70;;;;;;;;;;5004685;28;20222;-67
2022/09/04 12:38:23;;;;;;;22.65;4.78;;;;;;;;;;5005974;28;20037;-67
2022/09/04 12:41:01;;;;;;;21.02;4.53;;;;;;;;;;5005898;28;20299;-67
2022/09/04 12:43:30;;;;;;;20.58;4.43;;;;;;;;;;5009373;28;20033;-67
2022/09/04 12:46:04;;;;;;;23.73;4.63;;;;;;;;;;5005655;28;20055;-67
2022/09/04 12:48:32;;;;;;;;;;;;;;;;;;5010055;28;20025;-67
2022/09/04 12:51:08;;;;;;;23.55;4.50;;;;;;;;;;5004724;28;19963;-67
2022/09/04 12:53:34;;;;;;;19.25;4.55;;;;;;;;;;5024414;28;20037;-67
2022/09/04 12:56:10;;;;;;;20.73;4.05;;;;;;;;;;5026494;28;20087;-67
2022/09/04 12:58:46;;;;;;;18.13;4.05;;;;;;;;;;5014932;28;20033;-67
2022/09/04 13:01:28;;;;;;;21.10;4.50;;;;;;;;;;5019434;28;20036;-67
2022/09/04 13:04:12;;;;;;;19.92;4.55;;;;;;;;;;5028151;28;20029;-67
2022/09/04 13:07:01;;;;;;;23.30;4.70;;;;;;;;;;5031059;28;20020;-67
2022/09/04 13:09:30;;;;;;;21.23;4.18;;;;;;;;;;5035092;28;20047;-68
2022/09/04 13:12:06;;;;;;;17.70;3.55;;;;;;;;;;5028484;28;20069;-66
2022/09/04 13:14:50;;;;;;;24.30;6.40;;;;;;;;;;5031331;28;20032;-67
2022/09/04 13:17:29;;;;;;;24.95;5.88;;;;;;;;;;5029220;28;20040;-68
2022/09/04 13:19:59;;;;;;;28.42;4.93;;;;;;;;;;5021689;28;20020;-67
2022/09/04 13:22:34;;;;;;;18.38;3.83;;;;;;;;;;5011038;28;20482;-67
2022/09/04 13:25:07;;;;;;;17.20;5.18;;;;;;;;;;5022286;28;20099;-67
2022/09/04 13:27:47;;;;;;;16.55;3.67;;;;;;;;;;5035060;28;20052;-66
2022/09/04 13:30:20;;;;;;;14.95;3.63;;;;;;;;;;5009711;28;20502;-66
2022/09/04 13:32:49;;;;;;;17.58;3.60;;;;;;;;;;5027127;28;20342;-67
2022/09/04 13:35:31;;;;;;;18.33;3.10;;;;;;;;;;5026589;28;20037;-67
2022/09/04 13:38:16;;;;;;;15.63;3.35;;;;;;;;;;5025081;28;20029;-67
2022/09/04 13:40:45;;;;;;;16.98;3.35;;;;;;;;;;5030986;28;20034;-67
2022/09/04 13:43:22;;;;;;;14.10;3.35;;;;;;;;;;5034090;28;20028;-66
2022/09/04 13:45:51;;;;;;;16.63;3.50;;;;;;;;;;5031171;28;20500;-67
2022/09/04 13:48:17;;;;;;;18.23;3.90;;;;;;;;;;5027732;28;20723;-67
2022/09/04 13:50:46;;;;;;;16.13;3.53;;;;;;;;;;5026909;28;20040;-67
2022/09/04 13:53:22;;;;;;;12.90;3.00;;;;;;;;;;5031092;28;20510;-67
2022/09/04 13:55:58;;;;;;;17.02;3.25;;;;;;;;;;5028070;28;20108;-66
2022/09/04 13:58:29;;;;;;;19.60;3.28;;;;;;;;;;5033507;28;20035;-67
2022/09/04 14:00:58;;;;;;;16.38;3.55;;;;;;;;;;5006610;28;20466;-67
2022/09/04 14:03:36;;;;;;;13.13;3.03;;;;;;;;;;5036076;28;20028;-66
2022/09/04 14:06:04;;;;;;;19.50;3.65;;;;;;;;;;5026168;28;22201;-67
2022/09/04 14:08:32;;;;;;;16.95;3.72;;;;;;;;;;5031625;28;20029;-66
2022/09/04 14:11:10;;;;;;;17.58;3.60;;;;;;;;;;5030428;28;20040;-67
2022/09/04 14:14:02;;;;;;;15.38;3.00;;;;;;;;;;5034638;28;20040;-66
2022/09/04 14:16:32;;;;;;;16.50;3.53;;;;;;;;;;5027512;28;20048;-66
2022/09/04 14:19:16;;;;;;;15.05;3.17;;;;;;;;;;5024224;28;20033;-66
2022/09/04 14:22:01;;;;;;;18.50;3.45;;;;;;;;;;5030353;28;20025;-66
2022/09/04 14:24:31;;;;;;;19.73;3.42;;;;;;;;;;5029772;28;20381;-66
2022/09/04 14:27:06;;;;;;;15.95;3.13;;;;;;;;;;5025234;28;20035;-66
2022/09/04 14:29:35;;;;;;;16.10;3.05;;;;;;;;;;5027167;28;20056;-66
2022/09/04 14:32:03;;;;;;;16.13;3.20;;;;;;;;;;5008208;28;20048;-66
2022/09/04 14:34:35;;;;;;;15.15;3.75;;;;;;;;;;5028244;28;20037;-66
2022/09/04 14:37:22;;;;;;;16.65;3.40;;;;;;;;;;5029373;28;20033;-65
2022/09/04 14:39:53;;;;;;;14.45;3.15;;;;;;;;;;5025996;28;20016;-65
2022/09/04 14:42:44;;;;;;;18.23;3.70;;;;;;;;;;5014985;28;20471;-66
2022/09/04 14:45:28;;;;;;;20.05;3.40;;;;;;;;;;5032017;28;20025;-65
2022/09/04 14:47:57;;;;;;;22.37;4.03;;;;;;;;;;5027531;28;20494;-66
2022/09/04 14:50:27;;;;;;;18.33;3.65;;;;;;;;;;5025685;28;20286;-66
2022/09/04 14:53:16;;;;;;;19.73;3.97;;;;;;;;;;5003975;28;20194;-66
2022/09/04 14:56:02;;;;;;;18.17;3.42;;;;;;;;;;5021321;28;20037;-66
2022/09/04 14:58:30;;;;;;;17.02;3.92;;;;;;;;;;5007455;28;20028;-66
2022/09/04 15:00:58;;;;;;;23.60;4.15;;;;;;;;;;5022144;28;20307;-65
2022/09/04 15:03:28;;;;;;;16.30;3.08;;;;;;;;;;5028495;28;20029;-65
2022/09/04 15:06:00;;;;;;;18.23;3.63;;;;;;;;;;5021415;28;20037;-66
2022/09/04 15:08:33;;;;;;;18.42;3.83;;;;;;;;;;5021709;28;20052;-66
2022/09/04 15:11:02;;;;;;;25.10;3.72;;;;;;;;;;5000730;28;20029;-67
2022/09/04 15:13:32;;;;;;;18.27;4.00;;;;;;;;;;5023860;28;20093;-67
2022/09/04 15:15:58;;;;;;;18.88;4.32;;;;;;;;;;5001459;28;20043;-67
2022/09/04 15:18:29;;;;;;;15.60;3.90;;;;;;;;;;5003345;28;20670;-67
2022/09/04 15:21:10;;;;;;;18.85;4.32;;;;;;;;;;5018525;28;20025;-65
2022/09/04 15:23:36;;;;;;;23.13;4.40;;;;;;;;;;5022545;28;20078;-65
2022/09/04 15:26:08;;;;;;;25.58;4.15;;;;;;;;;;5021588;28;20032;-67